This is the latest recevied weather packets stored in our database for station/object K4IR. If no packets are shown the sender has not sent any weather packets the latest 10 day(s).
| Time | Temp. | Humidity | Pressure | Rain* | Wind** | Luminosity | Snow |
|---|---|---|---|---|---|---|---|
| 1787421802 | 28.89° C | 80% | 1014.6 hPa | 0 mm | - | 314 W/m² | - |
| 1787421198 | 28.89° C | 80% | 1014.4 hPa | 0 mm | - | 221 W/m² | - |
| 1787420594 | 29.44° C | 78% | 1014.6 hPa | 0 mm | - | 919 W/m² | - |
| 1787419992 | 28.89° C | 79% | 1014.7 hPa | 0 mm | - | 905 W/m² | - |
| 1787419388 | 28.89° C | 80% | 1014.9 hPa | 0 mm | - | 172 W/m² | - |
| 1787418786 | 28.89° C | 80% | 1015 hPa | 0 mm | - | 219 W/m² | - |
| 1787418184 | 28.89° C | 77% | 1015.1 hPa | 0 mm | - | 314 W/m² | - |
| 1787417581 | 29.44° C | 79% | 1015 hPa | 0 mm | - | 317 W/m² | - |
| 1787416976 | 30° C | 78% | 1015.1 hPa | 0 mm | - | 349 W/m² | - |
| 1787416374 | 29.44° C | 79% | 1015.1 hPa | 0 mm | - | 845 W/m² | - |
| 1787415768 | 28.89° C | 84% | 1015 hPa | 0 mm | - | 850 W/m² | - |
| 1787415163 | 28.33° C | 82% | 1015.2 hPa | 0 mm | - | 130 W/m² | - |
| 1787414560 | 27.22° C | 86% | 1015.3 hPa | 0 mm | - | 333 W/m² | - |
| 1787413959 | 27.78° C | 88% | 1015.4 hPa | 0 mm | - | 317 W/m² | - |
| 1787413359 | 25.56° C | 95% | 1015.6 hPa | 0 mm | - | 749 W/m² | - |
| 1787412757 | 25° C | 98% | 1015.8 hPa | 0 mm | - | 190 W/m² | - |
| 1787412153 | 24.44° C | 98% | 1015.7 hPa | 0 mm | - | 153 W/m² | - |
| 1787411551 | 24.44° C | 99% | 1015.8 hPa | 0 mm | - | 203 W/m² | - |
| 1787410948 | 24.44° C | 99% | 1016 hPa | 0 mm | - | 106 W/m² | - |
| 1787410345 | 24.44° C | 99% | 1015.7 hPa | 0 mm | - | 173 W/m² | - |
| 1787409742 | 24.44° C | 99% | 1015.7 hPa | 0 mm | - | 120 W/m² | - |
| 1787409140 | 24.44° C | 99% | 1015.9 hPa | 0 mm | - | 111 W/m² | - |
| 1787408536 | 24.44° C | 99% | 1016 hPa | 0 mm | - | 109 W/m² | - |
| 1787407934 | 25° C | 99% | 1015.8 hPa | 0 mm | - | 304 W/m² | - |
| 1787407330 | 24.44° C | 99% | 1015.7 hPa | 0.51 mm | - | 250 W/m² | - |
* Rain latest hour (hover to see other rain measurements)
** Current wind speed in m/s (hover to see current wind gust speed)